Time;durP1;ratioP1;P1;durP2;ratioP2;P2;SDS_P1;SDS_P2;PMS_P1;PMS_P2;Temp;Humidity;BMP_temperature;BMP_pressure;BME280_temperature;BME280_humidity;BME280_pressure;Samples;Min_cycle;Max_cycle;Signal;HPM_P1;HPM_P2
2021/09/30 00:00:18;;;;;;;13.43;10.93;;;;;;;6.11;70.79;101282.81;1692373;84;21660;-60
2021/09/30 00:02:45;;;;;;;16.48;11.68;;;;;;;6.20;70.88;101278.05;1695962;84;21542;-61
2021/09/30 00:05:12;;;;;;;19.65;11.65;;;;;;;6.19;70.80;101282.38;1691921;84;21494;-61
2021/09/30 00:07:40;;;;;;;16.75;12.80;;;;;;;6.14;70.94;101284.14;1690850;84;21454;-60
2021/09/30 00:10:08;;;;;;;17.27;11.53;;;;;;;6.11;71.23;101285.42;1691617;82;22143;-60
2021/09/30 00:12:41;;;;;;;13.58;12.18;;;;;;;6.09;71.45;101287.17;1691665;84;21007;-60
2021/09/30 00:15:10;;;;;;;15.98;11.85;;;;;;;6.06;71.50;101281.92;1660187;85;21598;-60
2021/09/30 00:33:59;;;;;;;16.70;12.03;;;;;;;6.14;72.38;101274.10;1634737;86;21703;-60
2021/09/30 00:49:38;;;;;;;15.40;11.25;;;;;;;6.00;71.25;101273.64;1655094;85;21789;-61
2021/09/30 00:52:08;;;;;;;11.43;10.23;;;;;;;6.02;71.35;101281.05;1648787;85;21585;-61
2021/09/30 00:54:51;;;;;;;12.95;10.82;;;;;;;6.11;71.17;101272.37;1658548;85;21505;-63
2021/09/30 02:19:05;;;;;;;14.38;12.80;;;;;;;6.12;73.22;101270.63;1647201;85;21592;-63
2021/09/30 02:57:59;;;;;;;13.75;12.35;;;;;;;6.21;72.85;101272.80;1679840;84;21602;-63
2021/09/30 02:59:34;;;;;;;12.82;10.80;;;;;;;6.15;72.69;101275.86;1696361;82;21610;-62
2021/09/30 03:02:03;;;;;;;17.50;12.15;;;;;;;6.12;72.76;101278.05;1694067;82;21584;-62
2021/09/30 03:04:31;;;;;;;16.60;11.88;;;;;;;6.07;72.71;101273.23;1683897;83;21778;-61
2021/09/30 03:06:59;;;;;;;12.10;10.45;;;;;;;6.06;72.72;101270.62;1692508;82;21577;-62
2021/09/30 03:09:37;;;;;;;11.70;10.38;;;;;;;6.11;73.05;101276.73;1682658;84;21495;-62
2021/09/30 03:12:01;;;;;;;11.63;10.40;;;;;;;6.25;73.20;101273.68;1690710;83;21520;-62
2021/09/30 03:14:28;;;;;;;14.18;11.10;;;;;;;6.30;73.28;101278.48;1660541;83;21618;-62
2021/09/30 03:17:01;;;;;;;17.03;12.27;;;;;;;6.30;73.37;101284.16;1708521;83;21868;-63
2021/09/30 03:24:39;;;;;;;11.88;9.95;;;;;;;6.42;73.61;101282.42;1700119;82;21610;-61
2021/09/30 03:27:06;;;;;;;13.43;11.00;;;;;;;6.56;73.62;101274.58;1704324;83;21480;-62
2021/09/30 03:29:33;;;;;;;14.53;11.13;;;;;;;6.61;73.54;101279.78;1684133;83;21833;-63
2021/09/30 03:32:00;;;;;;;14.20;11.15;;;;;;;6.61;73.41;101276.77;1688468;82;21045;-61
2021/09/30 03:34:33;;;;;;;12.50;10.38;;;;;;;6.63;73.31;101275.02;1683422;83;21565;-63
2021/09/30 03:37:02;;;;;;;15.88;10.90;;;;;;;6.61;73.19;101273.25;1703746;83;21628;-63
2021/09/30 03:39:30;;;;;;;12.88;11.05;;;;;;;6.66;73.27;101270.20;1691024;83;21580;-63
2021/09/30 03:41:59;;;;;;;12.85;10.78;;;;;;;6.77;73.12;101276.74;1686650;83;21539;-63
2021/09/30 03:44:28;;;;;;;15.23;11.73;;;;;;;6.81;72.85;101275.86;1697272;82;21526;-63
2021/09/30 03:46:56;;;;;;;15.88;11.85;;;;;;;6.77;72.74;101276.30;1696777;83;20992;-62
2021/09/30 03:49:30;;;;;;;13.30;10.88;;;;;;;6.73;72.65;101266.72;1690528;82;21537;-62
2021/09/30 03:52:02;;;;;;;16.60;11.83;;;;;;;6.72;72.64;101271.50;1681419;83;21549;-63
2021/09/30 03:54:35;;;;;;;13.98;11.00;;;;;;;6.70;72.46;101273.69;1695019;83;21910;-63
2021/09/30 03:57:07;;;;;;;12.90;10.28;;;;;;;6.71;72.74;101278.06;1687873;83;21073;-61
2021/09/30 03:59:32;;;;;;;15.78;11.93;;;;;;;6.84;72.75;101275.88;1691107;82;21471;-62
2021/09/30 04:02:09;;;;;;;16.82;12.03;;;;;;;6.86;72.55;101267.58;1700394;83;21495;-61
2021/09/30 04:04:36;;;;;;;14.93;12.15;;;;;;;6.83;72.63;101272.80;1697030;83;21505;-61
2021/09/30 04:07:06;;;;;;;18.12;13.10;;;;;;;6.83;72.63;101272.80;1701703;83;22171;-62
2021/09/30 04:09:36;;;;;;;14.30;12.53;;;;;;;6.82;72.54;101275.00;1693795;83;21451;-62
2021/09/30 04:12:07;;;;;;;15.63;10.93;;;;;;;6.77;72.48;101269.77;1704601;83;21585;-62
2021/09/30 04:14:34;;;;;;;15.43;11.40;;;;;;;6.82;72.60;101273.70;1672977;83;21501;-63
2021/09/30 04:17:02;;;;;;;13.68;10.80;;;;;;;6.95;72.61;101279.75;1680166;84;21611;-63
2021/09/30 04:19:30;;;;;;;14.80;12.43;;;;;;;6.96;72.48;101277.14;1677436;84;21816;-64
2021/09/30 04:21:57;;;;;;;14.70;12.23;;;;;;;6.96;72.46;101277.14;1707673;82;21450;-63
2021/09/30 04:24:25;;;;;;;;;;;;;;;6.93;72.36;101275.86;1683486;84;21606;-64
2021/09/30 04:26:55;;;;;;;14.73;11.53;;;;;;;6.90;72.50;101278.91;1662122;84;20450;-62
2021/09/30 04:29:23;;;;;;;18.42;11.35;;;;;;;6.86;72.35;101279.34;1663513;84;21705;-62
2021/09/30 04:31:50;;;;;;;11.93;10.20;;;;;;;6.91;72.51;101281.53;1680749;84;21817;-62
2021/09/30 04:34:17;;;;;;;16.25;10.75;;;;;;;7.05;72.57;101284.11;1698242;83;21439;-61
2021/09/30 04:36:46;;;;;;;14.58;11.25;;;;;;;7.11;72.49;101288.45;1695705;82;21550;-62
2021/09/30 04:39:15;;;;;;;14.15;11.45;;;;;;;7.13;72.55;101286.70;1699284;82;21632;-62
2021/09/30 04:41:44;;;;;;;12.30;10.95;;;;;;;7.14;72.47;101283.20;1696396;82;21562;-62
2021/09/30 04:44:12;;;;;;;17.57;11.73;;;;;;;7.16;72.39;101289.33;1690074;82;21797;-62
2021/09/30 04:46:39;;;;;;;;;;;;;;;7.17;72.37;101294.97;1704811;83;21470;-61
2021/09/30 04:49:24;;;;;;;10.43;9.35;;;;;;;7.26;72.73;101290.16;1677941;84;20581;-62
2021/09/30 04:51:51;;;;;;;12.00;10.85;;;;;;;7.40;72.56;101294.48;1676423;83;21063;-62
2021/09/30 04:54:19;;;;;;;;;;;;;;;7.44;72.64;101290.11;1678955;83;21535;-63
2021/09/30 04:56:45;;;;;;;13.68;11.28;;;;;;;7.45;72.93;101297.06;1679862;84;21785;-62
2021/09/30 04:59:14;;;;;;;11.93;10.72;;;;;;;7.45;72.76;101294.90;1676481;83;21467;-63
2021/09/30 05:01:42;;;;;;;20.17;11.25;;;;;;;7.48;72.66;101296.17;1677550;83;21632;-64
2021/09/30 05:04:11;;;;;;;14.47;10.38;;;;;;;7.51;72.60;101296.17;1708852;82;21008;-63
2021/09/30 05:06:39;;;;;;;11.22;10.03;;;;;;;7.60;72.84;101294.83;1701135;82;21513;-64
2021/09/30 05:09:06;;;;;;;16.90;10.83;;;;;;;7.85;72.84;101292.09;1675001;83;21717;-64
2021/09/30 05:11:40;;;;;;;15.32;11.03;;;;;;;7.85;72.84;101292.09;1687788;83;22013;-63
2021/09/30 05:14:05;;;;;;;13.50;11.20;;;;;;;7.87;72.73;101298.19;1673526;84;21485;-65
2021/09/30 05:16:34;;;;;;;13.85;11.97;;;;;;;7.89;72.65;101293.40;1678302;83;21507;-65
2021/09/30 05:19:07;;;;;;;12.58;11.30;;;;;;;7.91;72.46;101294.26;1677817;83;21457;-64
2021/09/30 05:21:35;;;;;;;;;;;;;;;7.93;72.13;101295.12;1693688;84;21740;-63
2021/09/30 05:24:02;;;;;;;11.85;10.25;;;;;;;8.00;72.15;101305.10;1679644;83;20531;-65
2021/09/30 05:26:29;;;;;;;14.73;11.55;;;;;;;8.14;71.85;101302.42;1698701;82;21525;-64
2021/09/30 05:28:57;;;;;;;16.00;11.33;;;;;;;8.15;71.68;101305.00;1693186;82;21159;-66
2021/09/30 05:31:25;;;;;;;14.75;11.35;;;;;;;8.16;71.46;101304.14;1672983;84;21580;-64
2021/09/30 05:34:10;;;;;;;13.38;10.72;;;;;;;8.17;71.33;101302.38;1732529;80;21830;-64
2021/09/30 05:36:37;;;;;;;13.30;11.35;;;;;;;8.20;71.36;101302.38;1715968;82;21505;-64
2021/09/30 05:39:04;;;;;;;12.80;10.03;;;;;;;8.21;71.08;101305.85;1716508;81;21443;-64
2021/09/30 05:41:32;;;;;;;10.80;9.38;;;;;;;8.32;71.21;101313.20;1726180;81;21584;-65
2021/09/30 05:44:07;;;;;;;16.27;11.70;;;;;;;8.48;70.92;101319.26;1722004;80;21597;-64
2021/09/30 05:46:36;;;;;;;15.18;12.25;;;;;;;8.53;70.71;101318.34;1735371;81;21812;-66
2021/09/30 05:49:04;;;;;;;17.15;12.82;;;;;;;8.56;70.55;101314.81;1723520;81;21432;-64
2021/09/30 05:51:32;;;;;;;12.98;11.53;;;;;;;8.62;70.15;101323.07;1729270;80;21549;-66
2021/09/30 05:54:01;;;;;;;17.32;11.95;;;;;;;8.63;69.95;101322.20;1730074;81;21085;-69
2021/09/30 05:56:29;;;;;;;13.40;11.73;;;;;;;8.61;69.83;101323.52;1727603;80;21566;-69
2021/09/30 05:58:57;;;;;;;11.53;9.65;;;;;;;8.62;70.02;101330.94;1725507;81;21444;-68
2021/09/30 06:10:10;;;;;;;15.53;11.73;;;;;;;8.91;70.00;101331.98;1727464;80;21492;-67
2021/09/30 06:12:12;;;;;;;15.00;11.03;;;;;;;8.93;69.92;101332.42;1717182;80;21943;-66
2021/09/30 06:14:39;;;;;;;11.93;10.72;;;;;;;8.98;69.57;101336.75;1729496;80;21496;-67
2021/09/30 06:17:08;;;;;;;12.10;10.80;;;;;;;8.99;69.21;101335.88;1726486;81;21576;-67
2021/09/30 06:19:37;;;;;;;11.88;9.85;;;;;;;8.99;68.97;101335.88;1734479;81;21534;-67
2021/09/30 06:22:07;;;;;;;13.10;11.20;;;;;;;9.06;69.25;101337.12;1693645;81;21611;-70
2021/09/30 06:24:36;;;;;;;12.75;10.05;;;;;;;9.23;68.98;101330.39;1729513;81;21827;-69
2021/09/30 06:27:03;;;;;;;12.78;10.72;;;;;;;9.26;68.58;101330.80;1719331;82;21531;-66
2021/09/30 06:29:31;;;;;;;14.00;11.45;;;;;;;9.28;68.49;101335.13;1725794;81;21543;-64
2021/09/30 06:32:00;;;;;;;13.62;11.25;;;;;;;9.31;68.45;101333.80;1720621;81;20994;-67
2021/09/30 06:34:33;;;;;;;15.23;11.57;;;;;;;9.34;68.45;101333.77;1726124;80;21554;-69
2021/09/30 06:37:08;;;;;;;13.72;11.80;;;;;;;9.40;68.21;101333.25;1673160;83;22126;-67
2021/09/30 06:39:37;;;;;;;16.70;12.58;;;;;;;9.44;68.16;101335.84;1673593;83;21570;-67
2021/09/30 06:42:05;;;;;;;16.10;11.22;;;;;;;9.48;68.09;101343.25;1699812;82;21537;-69
2021/09/30 06:44:43;;;;;;;14.25;10.90;;;;;;;9.57;68.37;101337.89;1622442;87;21661;-69
2021/09/30 06:47:35;;;;;;;12.03;10.13;;;;;;;9.74;68.27;101342.50;1747308;79;21506;-68
2021/09/30 06:50:06;;;;;;;15.03;10.65;;;;;;;9.83;67.86;101340.62;1727436;81;21767;-67
2021/09/30 06:52:49;;;;;;;14.85;11.88;;;;;;;9.87;67.66;101344.53;1722963;80;21542;-64
2021/09/30 06:55:18;;;;;;;18.87;12.13;;;;;;;9.93;67.42;101344.44;1731202;80;21059;-69
2021/09/30 06:58:04;;;;;;;16.40;11.57;;;;;;;9.96;67.30;101338.72;1739164;80;21491;-66
2021/09/30 07:00:39;;;;;;;15.25;12.18;;;;;;;10.00;67.29;101340.41;1736951;81;21550;-66
2021/09/30 07:03:24;;;;;;;14.43;12.85;;;;;;;10.06;66.93;101345.16;1732821;80;21900;-64
2021/09/30 07:06:12;;;;;;;18.48;13.85;;;;;;;10.10;66.79;101336.33;1733469;80;21435;-65
2021/09/30 07:08:39;;;;;;;15.00;12.75;;;;;;;10.15;66.55;101334.94;1732373;81;21513;-64
2021/09/30 07:11:06;;;;;;;14.45;11.83;;;;;;;10.19;66.14;101340.61;1734325;80;21590;-66
2021/09/30 07:13:33;;;;;;;14.43;10.73;;;;;;;10.32;66.58;101343.93;1729543;80;21514;-66
2021/09/30 07:16:01;;;;;;;12.97;11.43;;;;;;;10.51;66.10;101341.92;1728104;80;22123;-66
2021/09/30 07:18:29;;;;;;;15.08;11.33;;;;;;;10.63;65.61;101342.17;1733501;80;21522;-66
2021/09/30 07:20:57;;;;;;;15.08;11.50;;;;;;;10.69;65.10;101340.29;1725286;80;21582;-67
2021/09/30 07:23:28;;;;;;;14.33;11.00;;;;;;;10.76;64.13;101338.45;1732443;81;21542;-66
2021/09/30 07:25:55;;;;;;;16.50;10.78;;;;;;;10.86;63.82;101341.33;1737607;80;21396;-67
2021/09/30 07:28:22;;;;;;;12.33;10.60;;;;;;;10.93;63.29;101340.79;1741530;80;21776;-69
2021/09/30 07:30:49;;;;;;;15.78;13.03;;;;;;;10.99;63.12;101347.71;1731342;80;21561;-67
2021/09/30 07:33:17;;;;;;;13.90;11.50;;;;;;;11.04;62.78;101339.30;1722658;80;21414;-66
2021/09/30 07:35:44;;;;;;;20.12;12.40;;;;;;;11.06;62.82;101338.81;1722801;82;21565;-65
2021/09/30 07:38:11;;;;;;;15.25;11.93;;;;;;;11.10;62.66;101344.44;1725782;80;21553;-65
2021/09/30 07:40:38;;;;;;;13.18;11.60;;;;;;;11.13;62.64;101343.05;1721508;80;21879;-67
2021/09/30 07:43:06;;;;;;;17.30;10.90;;;;;;;11.16;62.40;101341.69;1722505;80;21509;-69
2021/09/30 07:45:35;;;;;;;15.72;10.13;;;;;;;11.22;62.32;101347.30;1717914;82;21547;-66
2021/09/30 07:48:01;;;;;;;11.60;8.95;;;;;;;11.25;61.94;101346.79;1727752;82;21495;-66
2021/09/30 07:50:28;;;;;;;13.80;9.17;;;;;;;11.28;61.30;101345.85;1730676;80;21609;-66
2021/09/30 07:52:57;;;;;;;12.20;9.23;;;;;;;11.32;60.52;101344.03;1721581;80;22095;-68
2021/09/30 07:55:27;;;;;;;13.53;8.30;;;;;;;11.35;60.03;101346.63;1722959;80;21504;-64
2021/09/30 07:57:53;;;;;;;11.03;7.60;;;;;;;11.35;59.45;101351.43;1727277;80;21538;-65
2021/09/30 08:00:21;;;;;;;6.25;5.60;;;;;;;11.35;58.78;101346.16;1729474;82;21471;-64
2021/09/30 08:02:49;;;;;;;5.67;4.42;;;;;;;11.38;58.43;101350.06;1722243;80;21506;-66
2021/09/30 08:05:16;;;;;;;4.35;3.95;;;;;;;11.39;57.45;101346.52;1734913;80;21750;-66
2021/09/30 08:07:44;;;;;;;6.20;5.45;;;;;;;11.41;56.53;101346.04;1739887;80;21632;-67
2021/09/30 08:10:12;;;;;;;6.92;4.62;;;;;;;11.42;56.15;101345.16;1724577;82;22539;-66
2021/09/30 08:12:40;;;;;;;6.22;5.15;;;;;;;11.45;55.88;101346.84;1731189;80;21042;-67
2021/09/30 08:15:08;;;;;;;6.55;5.92;;;;;;;11.46;55.38;101347.28;1723656;80;21018;-67
2021/09/30 08:17:35;;;;;;;13.50;7.08;;;;;;;11.46;55.57;101345.97;1692740;82;21741;-67
2021/09/30 08:20:03;;;;;;;8.20;7.40;;;;;;;11.49;56.03;101347.23;1704483;82;21632;-67
2021/09/30 08:22:31;;;;;;;8.18;7.37;;;;;;;11.52;56.21;101341.89;1700615;82;21585;-67
2021/09/30 08:24:58;;;;;;;6.12;5.55;;;;;;;11.52;56.16;101337.94;1728854;80;21554;-66
2021/09/30 08:27:25;;;;;;;5.58;4.92;;;;;;;11.52;55.35;101348.93;1729846;80;21645;-66
2021/09/30 08:29:55;;;;;;;5.25;4.72;;;;;;;11.50;54.66;101341.05;1731273;80;22430;-66
2021/09/30 08:32:22;;;;;;;7.78;5.87;;;;;;;11.49;54.75;101344.14;1730332;80;21503;-67
2021/09/30 08:34:50;;;;;;;7.22;6.50;;;;;;;11.51;55.05;101337.53;1731179;80;21415;-66
2021/09/30 08:37:16;;;;;;;6.50;5.90;;;;;;;11.56;55.23;101336.97;1731374;82;21555;-67
2021/09/30 08:39:43;;;;;;;8.13;6.07;;;;;;;11.60;55.25;101341.31;1728856;80;21430;-66
2021/09/30 08:42:10;;;;;;;9.98;6.58;;;;;;;11.61;55.27;101337.76;1723634;80;21909;-63
2021/09/30 08:44:37;;;;;;;7.42;6.83;;;;;;;11.63;55.25;101343.86;1649513;83;21617;-69
2021/09/30 08:47:04;;;;;;;8.08;7.10;;;;;;;11.65;55.47;101339.42;1700118;82;21439;-67
2021/09/30 08:49:34;;;;;;;10.43;7.20;;;;;;;11.67;55.51;101345.53;1724081;80;21504;-67
2021/09/30 08:52:01;;;;;;;8.45;6.47;;;;;;;11.67;55.84;101340.26;1721709;80;21505;-68
2021/09/30 08:54:29;;;;;;;8.28;5.70;;;;;;;11.68;55.76;101341.15;1726879;80;22154;-68
2021/09/30 08:56:56;;;;;;;7.55;6.75;;;;;;;11.67;55.40;101340.26;1738597;80;21407;-69
2021/09/30 08:59:28;;;;;;;11.22;6.87;;;;;;;11.66;55.40;101338.54;1737383;80;21569;-68
2021/09/30 09:02:11;;;;;;;6.47;5.85;;;;;;;11.65;55.23;101335.47;1737837;80;21472;-67
2021/09/30 09:04:58;;;;;;;8.10;6.78;;;;;;;11.65;55.54;101337.25;1725169;80;21415;-68
2021/09/30 09:07:30;;;;;;;8.77;6.97;;;;;;;11.61;55.45;101335.13;1685906;82;21935;-68
2021/09/30 09:09:59;;;;;;;7.67;6.42;;;;;;;11.60;55.16;101332.09;1722006;80;21479;-67
2021/09/30 09:12:26;;;;;;;8.10;7.30;;;;;;;11.58;55.14;101331.22;1725620;82;21052;-68
2021/09/30 09:14:54;;;;;;;7.22;6.55;;;;;;;11.60;55.34;101330.77;1689960;82;21561;-68
2021/09/30 09:17:20;;;;;;;10.30;7.10;;;;;;;11.62;55.36;101331.60;1689837;83;21546;-67
2021/09/30 09:19:51;;;;;;;8.60;7.20;;;;;;;11.63;55.50;101332.00;1693977;83;22478;-66
2021/09/30 09:22:30;;;;;;;6.95;6.25;;;;;;;11.65;55.52;101330.66;1689046;82;21647;-67
2021/09/30 09:25:11;;;;;;;8.35;6.85;;;;;;;11.67;55.46;101336.31;1691591;82;21490;-68
2021/09/30 09:27:56;;;;;;;10.80;6.90;;;;;;;11.71;55.22;101326.58;1728826;80;21001;-66
2021/09/30 09:30:33;;;;;;;9.43;7.10;;;;;;;11.73;55.24;101326.55;1731661;80;21597;-69
2021/09/30 09:33:27;;;;;;;7.62;6.87;;;;;;;11.79;55.28;101329.94;1727135;80;21475;-67
2021/09/30 09:36:20;;;;;;;7.53;6.83;;;;;;;11.82;55.10;101327.22;1722226;80;21534;-69
2021/09/30 09:38:48;;;;;;;11.15;7.25;;;;;;;11.90;54.78;101330.18;1716078;81;21495;-67
2021/09/30 09:41:35;;;;;;;7.55;6.28;;;;;;;11.97;54.61;101325.20;1689563;82;21025;-67
2021/09/30 09:44:04;;;;;;;;;;;;;;;12.03;54.22;101321.10;1671957;84;21531;-69
2021/09/30 09:46:40;;;;;;;6.45;5.72;;;;;;;12.06;54.08;101332.45;1664103;84;20831;-68
2021/09/30 09:49:19;;;;;;;7.45;6.42;;;;;;;12.06;54.03;101323.68;1716765;80;20939;-68
2021/09/30 09:51:52;;;;;;;8.18;5.75;;;;;;;12.06;53.61;101334.23;1713311;81;21491;-66
2021/09/30 09:54:22;;;;;;;10.25;5.53;;;;;;;12.08;53.55;101323.19;1725325;80;21581;-67
2021/09/30 09:56:50;;;;;;;6.42;5.60;;;;;;;12.10;53.83;101320.53;1719155;80;21574;-66
2021/09/30 09:59:30;;;;;;;8.90;6.22;;;;;;;12.19;53.35;101325.14;1725722;80;22104;-64
2021/09/30 10:01:58;;;;;;;7.85;5.90;;;;;;;12.27;53.13;101322.32;1720379;80;21570;-67
2021/09/30 10:04:26;;;;;;;9.78;5.35;;;;;;;12.35;52.74;101323.00;1686815;82;21644;-68
2021/09/30 10:06:55;;;;;;;8.20;4.72;;;;;;;12.40;52.61;101322.45;1699236;81;21593;-71
2021/09/30 10:09:21;;;;;;;8.30;5.47;;;;;;;12.43;52.45;101318.43;1723254;80;21680;-67
2021/09/30 10:11:48;;;;;;;7.30;5.25;;;;;;;12.50;52.27;101316.50;1722337;80;21852;-63
2021/09/30 10:14:15;;;;;;;6.05;5.10;;;;;;;12.55;51.76;101321.68;1725813;80;21491;-64
2021/09/30 10:16:47;;;;;;;7.20;5.40;;;;;;;12.58;52.20;101321.16;1700040;82;21025;-64
2021/09/30 10:19:10;;;;;;;6.45;5.75;;;;;;;12.68;51.93;101313.88;1701045;82;21644;-64
2021/09/30 10:21:39;;;;;;;6.05;5.45;;;;;;;12.73;51.83;101310.64;1698572;81;21013;-64
2021/09/30 10:24:18;;;;;;;9.25;5.10;;;;;;;12.80;51.59;101317.50;1697077;82;22075;-69
2021/09/30 10:26:51;;;;;;;6.67;4.90;;;;;;;12.87;51.28;101313.41;1708889;80;21510;-65
2021/09/30 10:29:45;;;;;;;5.72;5.22;;;;;;;12.91;50.99;101317.23;1722641;80;21570;-64
2021/09/30 10:32:18;;;;;;;5.58;5.08;;;;;;;12.98;50.65;101317.96;1700266;81;21515;-65
2021/09/30 10:34:48;;;;;;;6.67;5.33;;;;;;;13.02;50.37;101315.65;1719880;80;21030;-66
2021/09/30 10:37:31;;;;;;;7.58;5.60;;;;;;;13.04;50.26;101309.88;1720059;80;21771;-68
2021/09/30 10:40:21;;;;;;;10.10;5.67;;;;;;;13.05;50.06;101302.34;1720510;80;21163;-66
2021/09/30 10:42:55;;;;;;;10.43;6.40;;;;;;;13.09;49.88;101301.38;1720186;80;21614;-66
2021/09/30 10:45:37;;;;;;;7.37;6.35;;;;;;;13.13;49.99;101302.14;1730763;81;21035;-67
2021/09/30 10:48:30;;;;;;;9.83;6.87;;;;;;;13.18;50.07;101302.89;1720907;81;21604;-68
2021/09/30 10:51:06;;;;;;;8.83;6.50;;;;;;;13.24;49.65;101304.92;1720411;81;21823;-68
2021/09/30 10:53:52;;;;;;;13.58;6.50;;;;;;;13.27;49.74;101300.45;1723435;81;21428;-66
2021/09/30 10:56:41;;;;;;;9.73;6.78;;;;;;;13.30;49.67;101301.67;1683790;82;21116;-70
2021/09/30 10:59:19;;;;;;;14.65;7.00;;;;;;;13.32;49.38;101301.24;1708144;81;21543;-69
2021/09/30 11:01:52;;;;;;;10.90;6.45;;;;;;;13.38;49.69;101299.27;1714512;82;21517;-68
2021/09/30 11:04:20;;;;;;;7.70;6.90;;;;;;;13.37;49.67;101301.95;1725026;81;21735;-69
2021/09/30 11:07:15;;;;;;;7.65;6.35;;;;;;;13.38;49.64;101301.06;1710965;81;21558;-69
2021/09/30 11:09:44;;;;;;;9.70;5.83;;;;;;;13.39;49.41;101300.13;1715651;81;21519;-68
2021/09/30 11:12:12;;;;;;;8.63;6.30;;;;;;;13.38;49.19;101300.59;1717817;80;21459;-65
2021/09/30 11:14:57;;;;;;;9.08;6.67;;;;;;;13.37;49.18;101297.99;1724168;81;21499;-67
2021/09/30 11:17:41;;;;;;;9.95;6.65;;;;;;;13.36;49.24;101289.20;1724715;80;21697;-65
2021/09/30 11:20:35;;;;;;;8.03;6.62;;;;;;;13.33;49.32;101290.61;1723933;81;21636;-66
2021/09/30 11:23:05;;;;;;;7.47;6.62;;;;;;;13.30;49.47;101284.11;1707313;81;21622;-66
2021/09/30 11:26:07;;;;;;;8.30;6.35;;;;;;;13.36;49.44;101285.25;1685963;81;21587;-66
2021/09/30 11:28:35;;;;;;;9.08;6.85;;;;;;;13.43;49.45;101281.98;1677867;82;21525;-66
2021/09/30 11:31:26;;;;;;;;;;;;;;;13.56;49.37;101276.76;1686024;82;21800;-65
2021/09/30 11:33:59;;;;;;;7.58;6.60;;;;;;;13.66;48.51;101272.06;1667099;83;20511;-65
2021/09/30 11:36:35;;;;;;;10.05;6.28;;;;;;;13.70;48.28;101273.70;1671265;84;21599;-64
2021/09/30 11:39:03;;;;;;;7.67;6.77;;;;;;;13.77;48.53;101269.11;1683449;84;21574;-65
2021/09/30 11:41:34;;;;;;;;;;;;;;;13.89;48.28;101265.22;1666588;84;21960;-66
2021/09/30 11:44:01;;;;;;;9.28;6.47;;;;;;;13.97;47.79;101264.05;1683648;83;22091;-65
2021/09/30 11:46:32;;;;;;;9.83;7.65;;;;;;;14.03;47.70;101262.98;1684441;82;21526;-65
2021/09/30 11:49:04;;;;;;;7.65;6.08;;;;;;;14.13;47.40;101254.33;1678401;82;21542;-65
2021/09/30 11:51:41;;;;;;;9.20;7.80;;;;;;;14.21;47.20;101262.41;1673946;82;21151;-65
2021/09/30 11:54:12;;;;;;;17.10;7.97;;;;;;;14.27;46.67;101252.55;1681094;82;21657;-64
2021/09/30 11:56:43;;;;;;;11.03;7.47;;;;;;;14.35;46.58;101249.19;1691645;83;21796;-65
2021/09/30 11:59:10;;;;;;;10.15;6.72;;;;;;;14.48;46.90;101247.86;1690367;82;21504;-66
2021/09/30 12:01:46;;;;;;;;;;;;;;;14.57;46.89;101249.38;1686862;82;21513;-65
2021/09/30 12:04:39;;;;;;;10.55;6.87;;;;;;;14.63;46.36;101250.95;1678634;82;20465;-67
2021/09/30 12:07:03;;;;;;;10.82;6.50;;;;;;;14.57;46.88;101250.23;1680673;83;21588;-65
2021/09/30 12:09:33;;;;;;;14.18;7.17;;;;;;;14.50;47.01;101246.48;1689751;82;21825;-66
2021/09/30 12:12:04;;;;;;;8.30;5.97;;;;;;;14.45;46.43;101242.69;1681866;82;21496;-66
2021/09/30 12:14:44;;;;;;;7.92;5.58;;;;;;;14.48;46.32;101234.63;1722736;80;21003;-71
2021/09/30 12:17:16;;;;;;;7.15;5.62;;;;;;;14.57;45.97;101235.67;1707309;82;21636;-66
2021/09/30 12:19:49;;;;;;;6.28;5.67;;;;;;;14.71;45.87;101238.30;1707359;82;21546;-63
2021/09/30 12:22:23;;;;;;;8.28;5.95;;;;;;;14.85;45.89;101233.87;1706689;82;22185;-68
2021/09/30 12:25:01;;;;;;;7.12;5.30;;;;;;;15.07;45.18;101228.64;1731015;80;20999;-63
2021/09/30 12:27:31;;;;;;;9.13;5.62;;;;;;;15.27;44.20;101216.86;1727651;80;21105;-64
2021/09/30 12:30:09;;;;;;;8.33;4.85;;;;;;;15.56;43.84;101214.44;1724034;80;21487;-64
2021/09/30 12:32:40;;;;;;;10.60;5.28;;;;;;;15.82;42.75;101205.94;1726841;80;21643;-63
2021/09/30 12:35:10;;;;;;;8.70;5.60;;;;;;;16.17;42.49;101207.64;1716178;81;21599;-64
2021/09/30 12:37:40;;;;;;;5.45;5.00;;;;;;;16.51;41.93;101207.55;1719546;81;21579;-65
2021/09/30 12:40:15;;;;;;;5.33;4.87;;;;;;;16.82;41.06;101200.89;1707767;81;21072;-65
2021/09/30 12:43:07;;;;;;;6.58;5.30;;;;;;;17.05;40.23;101202.11;1733136;80;21534;-66
2021/09/30 12:45:39;;;;;;;6.28;5.00;;;;;;;17.22;39.86;101198.69;1729226;80;21412;-63
2021/09/30 12:48:16;;;;;;;6.30;4.65;;;;;;;17.38;39.54;101195.31;1725650;81;21780;-64
2021/09/30 12:50:53;;;;;;;7.45;4.92;;;;;;;17.56;39.46;101198.92;1714921;81;21457;-63
2021/09/30 12:53:21;;;;;;;5.42;4.47;;;;;;;17.74;39.04;101187.86;1667848;84;21604;-64
2021/09/30 12:55:50;;;;;;;6.85;4.70;;;;;;;17.97;38.74;101193.41;1688751;84;21583;-63
2021/09/30 12:58:40;;;;;;;5.08;4.42;;;;;;;18.24;38.34;101190.72;1671863;83;21513;-63
2021/09/30 13:01:33;;;;;;;5.53;4.60;;;;;;;18.52;38.15;101190.66;1716291;81;22041;-65
2021/09/30 13:04:22;;;;;;;5.33;4.83;;;;;;;19.33;36.39;101176.16;1719119;81;21507;-64
2021/09/30 13:07:04;;;;;;;6.67;4.62;;;;;;;19.33;36.39;101176.16;1723055;82;21503;-65
2021/09/30 13:09:39;;;;;;;6.87;4.90;;;;;;;19.81;36.09;101173.03;1675663;84;21526;-65
2021/09/30 13:12:15;;;;;;;5.40;4.90;;;;;;;20.27;35.20;101173.97;1686423;84;21506;-64
2021/09/30 13:14:50;;;;;;;5.67;4.28;;;;;;;20.93;33.52;101156.67;1671083;84;21526;-64
2021/09/30 13:17:18;;;;;;;5.10;4.40;;;;;;;20.93;33.52;101156.67;1690278;82;21514;-64
2021/09/30 13:19:54;;;;;;;6.20;5.10;;;;;;;21.27;33.17;101158.55;1678224;84;21463;-64
2021/09/30 13:22:42;;;;;;;6.55;4.85;;;;;;;21.53;32.13;101157.77;1679271;84;20982;-65
2021/09/30 13:25:14;;;;;;;5.20;4.70;;;;;;;21.63;32.14;101151.33;1682432;84;21582;-65
2021/09/30 13:27:43;;;;;;;8.53;4.45;;;;;;;21.93;32.02;101149.78;1692515;82;21775;-63
2021/09/30 13:30:16;;;;;;;6.67;4.83;;;;;;;22.13;31.39;101146.23;1679964;82;21498;-64
2021/09/30 13:32:44;;;;;;;5.58;4.67;;;;;;;22.30;31.19;101150.47;1723365;82;21502;-64
2021/09/30 13:35:11;;;;;;;4.87;4.15;;;;;;;22.39;30.83;101151.19;1727868;80;21616;-64
2021/09/30 13:37:38;;;;;;;;;;;;;;;22.50;30.69;101136.56;1748186;80;21439;-64
2021/09/30 13:40:07;;;;;;;4.60;4.12;;;;;;;22.65;29.93;101131.96;1692926;83;21964;-64
2021/09/30 13:42:35;;;;;;;6.03;4.50;;;;;;;22.73;30.64;101128.74;1674007;83;21515;-64
2021/09/30 13:45:06;;;;;;;5.08;4.58;;;;;;;22.97;30.00;101127.98;1678006;83;21563;-65
2021/09/30 13:47:35;;;;;;;4.47;4.08;;;;;;;22.98;29.66;101127.00;1685838;83;21504;-64
2021/09/30 13:50:03;;;;;;;4.53;4.08;;;;;;;23.02;29.67;101122.66;1686356;84;21530;-65
2021/09/30 13:52:31;;;;;;;5.42;3.98;;;;;;;23.15;29.58;101122.67;1681985;83;21543;-66
2021/09/30 13:54:58;;;;;;;4.57;4.20;;;;;;;23.19;29.28;101122.81;1675537;83;21568;-67
2021/09/30 13:57:25;;;;;;;8.25;4.15;;;;;;;23.15;29.16;101122.67;1682077;83;21613;-68
2021/09/30 13:59:52;;;;;;;5.20;4.70;;;;;;;23.13;28.96;101114.73;1678347;84;21481;-66
2021/09/30 14:02:19;;;;;;;5.50;4.28;;;;;;;23.08;29.11;101114.20;1693810;83;21495;-65
2021/09/30 14:04:46;;;;;;;6.90;4.43;;;;;;;22.97;29.24;101111.40;1690450;83;21865;-66
2021/09/30 14:07:13;;;;;;;5.87;4.08;;;;;;;22.95;28.92;101111.99;1687383;82;21524;-66
2021/09/30 14:09:40;;;;;;;4.40;4.00;;;;;;;23.00;29.18;101111.19;1690754;83;21062;-66
2021/09/30 14:12:07;;;;;;;5.30;4.50;;;;;;;23.23;28.79;101106.02;1690808;83;21464;-66
2021/09/30 14:14:36;;;;;;;6.00;4.25;;;;;;;23.26;28.75;101102.63;1697389;82;21531;-64
2021/09/30 14:17:04;;;;;;;8.48;4.35;;;;;;;23.18;29.00;101102.31;1695322;82;21490;-64
2021/09/30 14:19:30;;;;;;;4.17;3.65;;;;;;;23.20;28.99;101103.05;1682180;82;21038;-64
2021/09/30 14:21:58;;;;;;;8.65;4.45;;;;;;;23.28;28.95;101098.00;1689952;82;21480;-65